< < Back
Terminal Aerodrome Forecast


Current Version              Previous Versions:   1  2  3  4  5  6  7  8  9  

Terminal Aerodrome Forecast

321
FTUS42 KJAX 311942 AAB
TAFJAX
TAF AMD
KJAX 311942Z 3120/0118 09012KT P6SM SCT250
     FM010100 VRB02KT P6SM SCT250
     FM011500 16012KT P6SM SCT040 BKN120=

Latest METAR

271
SAUS80 KWBC 011000 RRK
MTRJAX
METAR KJAX 010956Z 00000KT 10SM FEW250 06/06 A3024 RMK AO2 SLP241
T00560056


USA.gov is the U.S. government's official web portal to all federal, state and local government web resources and services.